Time;durP1;ratioP1;P1;durP2;ratioP2;P2;SDS_P1;SDS_P2;PMS_P1;PMS_P2;Temp;Humidity;BMP_temperature;BMP_pressure;BME280_temperature;BME280_humidity;BME280_pressure;Samples;Min_cycle;Max_cycle;Signal;HPM_P1;HPM_P2
2023/02/15 00:00:42;;;;;;;7.55;6.72;;;16.20;52.50;;;;;;5113585;28;20258;-66
2023/02/15 00:03:07;;;;;;;9.10;6.95;;;16.20;52.60;;;;;;5113396;28;20314;-66
2023/02/15 00:05:33;;;;;;;8.55;7.63;;;16.40;52.60;;;;;;5113874;28;20260;-66
2023/02/15 00:07:58;;;;;;;8.63;7.68;;;16.20;52.60;;;;;;5114161;28;20260;-65
2023/02/15 00:10:24;;;;;;;8.25;7.18;;;16.20;53.20;;;;;;5113181;28;20250;-65
2023/02/15 00:12:49;;;;;;;7.80;7.00;;;16.20;52.60;;;;;;5113427;28;20219;-65
2023/02/15 00:15:15;;;;;;;8.85;7.45;;;16.20;52.50;;;;;;5113071;28;20172;-65
2023/02/15 00:17:40;;;;;;;7.93;7.10;;;16.20;52.60;;;;;;5113319;28;20228;-65
2023/02/15 00:20:06;;;;;;;7.53;6.80;;;16.20;52.50;;;;;;5113787;28;20204;-65
2023/02/15 00:22:32;;;;;;;8.30;6.97;;;16.10;52.50;;;;;;5112676;28;20169;-65
2023/02/15 00:24:57;;;;;;;8.25;7.45;;;16.10;52.40;;;;;;5113645;28;20250;-65
2023/02/15 00:27:23;;;;;;;8.35;7.45;;;16.10;52.50;;;;;;5113703;28;20173;-65
2023/02/15 00:29:48;;;;;;;8.23;7.20;;;16.10;52.40;;;;;;5112727;28;20172;-66
2023/02/15 00:32:14;;;;;;;7.82;6.93;;;16.10;52.40;;;;;;5113547;28;20169;-66
2023/02/15 00:34:39;;;;;;;8.27;7.43;;;16.10;52.40;;;;;;5113162;28;20165;-66
2023/02/15 00:37:05;;;;;;;8.75;7.70;;;16.10;52.30;;;;;;5112850;28;20226;-65
2023/02/15 00:39:30;;;;;;;7.47;6.75;;;16.10;52.40;;;;;;5113493;28;20161;-65
2023/02/15 00:41:56;;;;;;;7.57;6.50;;;16.10;52.30;;;;;;5113046;28;20181;-65
2023/02/15 00:44:21;;;;;;;7.97;7.18;;;16.00;52.10;;;;;;5112891;28;20580;-65
2023/02/15 00:46:47;;;;;;;7.15;6.32;;;16.00;52.20;;;;;;5113126;28;20169;-64
2023/02/15 00:49:13;;;;;;;7.90;6.97;;;16.00;52.30;;;;;;5113375;28;20576;-65
2023/02/15 00:51:39;;;;;;;7.25;6.50;;;16.00;52.20;;;;;;5111223;28;20177;-64
2023/02/15 00:54:05;;;;;;;7.95;7.15;;;16.00;52.20;;;;;;5113283;28;20594;-64
2023/02/15 00:56:30;;;;;;;6.88;6.18;;;16.00;52.30;;;;;;5113352;28;20662;-65
2023/02/15 00:58:56;;;;;;;7.47;6.78;;;16.00;52.30;;;;;;5112500;28;20208;-66
2023/02/15 01:01:23;;;;;;;7.35;6.65;;;16.00;52.30;;;;;;5113267;28;20299;-66
2023/02/15 01:03:48;;;;;;;7.13;6.43;;;16.00;52.30;;;;;;5112838;28;20180;-66
2023/02/15 01:06:14;;;;;;;6.70;6.10;;;15.90;52.30;;;;;;5112666;28;20173;-65
2023/02/15 01:08:40;;;;;;;6.90;6.20;;;15.90;52.20;;;;;;5112706;28;20202;-64
2023/02/15 01:11:07;;;;;;;7.45;6.50;;;16.00;52.20;;;;;;5113087;28;20173;-65
2023/02/15 01:13:33;;;;;;;7.15;6.55;;;15.90;52.20;;;;;;5112264;28;20188;-65
2023/02/15 01:15:59;;;;;;;8.05;6.82;;;15.90;52.20;;;;;;5113043;28;20224;-65
2023/02/15 01:18:24;;;;;;;7.05;6.35;;;15.90;52.10;;;;;;5113135;28;20527;-65
2023/02/15 01:20:50;;;;;;;7.68;6.93;;;15.90;52.20;;;;;;5111889;28;20285;-65
2023/02/15 01:23:16;;;;;;;7.78;6.97;;;15.90;52.20;;;;;;5113066;28;20191;-65
2023/02/15 01:25:42;;;;;;;7.38;6.63;;;15.90;52.20;;;;;;5111844;28;20254;-65
2023/02/15 01:28:07;;;;;;;8.05;7.18;;;15.90;52.20;;;;;;5113105;28;20177;-65
2023/02/15 01:30:33;;;;;;;7.82;6.40;;;15.90;52.20;;;;;;5112592;28;20177;-66
2023/02/15 01:33:00;;;;;;;6.30;5.70;;;15.80;52.10;;;;;;5112433;28;20169;-65
2023/02/15 01:35:26;;;;;;;7.55;6.75;;;15.80;52.10;;;;;;5112847;28;20177;-66
2023/02/15 01:37:51;;;;;;;6.68;5.97;;;15.80;52.10;;;;;;5112555;28;20177;-65
2023/02/15 01:40:17;;;;;;;7.40;6.57;;;15.80;52.20;;;;;;5111886;28;20584;-65
2023/02/15 01:42:43;;;;;;;7.13;6.43;;;15.80;52.20;;;;;;5112493;28;20688;-65
2023/02/15 01:45:34;;;;;;;7.55;6.85;;;15.80;52.10;;;;;;5112682;28;20176;-65
2023/02/15 01:48:14;;;;;;;6.82;6.00;;;15.80;52.10;;;;;;5109130;28;20174;-65
2023/02/15 01:50:42;;;;;;;6.93;6.18;;;15.80;52.10;;;;;;5111230;28;20234;-64
2023/02/15 01:53:17;;;;;;;7.57;6.80;;;15.80;52.10;;;;;;5094690;28;20497;-63
2023/02/15 01:55:50;;;;;;;6.95;6.35;;;15.80;52.10;;;;;;5110687;28;20173;-65
2023/02/15 01:58:15;;;;;;;7.20;6.28;;;15.70;52.10;;;;;;5111498;28;20632;-67
2023/02/15 02:00:41;;;;;;;6.85;6.15;;;15.70;52.10;;;;;;5111783;28;20303;-66
2023/02/15 02:03:06;;;;;;;7.10;6.40;;;15.70;52.10;;;;;;5114335;28;20259;-66
2023/02/15 02:05:32;;;;;;;7.90;7.00;;;15.70;52.10;;;;;;5114989;28;20267;-65
2023/02/15 02:07:59;;;;;;;7.00;6.28;;;15.70;52.10;;;;;;5114339;28;20177;-66
2023/02/15 02:10:24;;;;;;;8.38;7.40;;;15.70;52.10;;;;;;5116234;28;20635;-65
2023/02/15 02:12:52;;;;;;;7.13;6.43;;;15.70;52.00;;;;;;5115906;28;20280;-64
2023/02/15 02:15:18;;;;;;;6.93;6.22;;;15.70;52.10;;;;;;5114275;28;20255;-65
2023/02/15 02:18:08;;;;;;;7.05;6.25;;;15.70;52.10;;;;;;5115750;28;20684;-65
2023/02/15 02:20:56;;;;;;;6.63;5.97;;;15.70;52.00;;;;;;5098291;28;20223;-65
2023/02/15 02:23:30;;;;;;;7.53;6.82;;;15.70;52.10;;;;;;5115124;28;20176;-65
2023/02/15 02:26:14;;;;;;;7.32;6.63;;;15.70;52.00;;;;;;5114435;28;20198;-65
2023/02/15 02:28:54;;;;;;;7.22;6.53;;;15.70;52.10;;;;;;5115818;28;20222;-65
2023/02/15 02:31:31;;;;;;;7.55;6.78;;;15.60;52.00;;;;;;5114836;28;20173;-66
2023/02/15 02:34:27;;;;;;;8.10;6.72;;;15.60;52.00;;;;;;5114454;28;20181;-66
2023/02/15 02:37:13;;;;;;;8.05;7.25;;;15.60;52.00;;;;;;5113969;28;20193;-65
2023/02/15 02:39:49;;;;;;;8.27;6.80;;;15.60;51.90;;;;;;5114387;28;20191;-65
2023/02/15 02:42:20;;;;;;;8.15;7.32;;;15.60;52.00;;;;;;5114522;28;20266;-65
2023/02/15 02:44:54;;;;;;;7.13;6.40;;;15.50;51.90;;;;;;5113361;28;20183;-65
2023/02/15 02:47:32;;;;;;;9.10;7.45;;;15.60;52.10;;;;;;5097717;28;20215;-64
2023/02/15 02:49:59;;;;;;;7.53;6.57;;;15.60;52.00;;;;;;5113660;28;20185;-63
2023/02/15 02:52:41;;;;;;;8.43;7.60;;;15.50;51.90;;;;;;5114458;28;20200;-64
2023/02/15 02:55:11;;;;;;;8.25;7.40;;;15.50;51.90;;;;;;5115312;28;20177;-64
2023/02/15 02:57:38;;;;;;;7.47;6.68;;;15.50;52.00;;;;;;5096670;28;20231;-66
2023/02/15 03:00:15;;;;;;;8.25;7.45;;;15.60;52.00;;;;;;5115143;28;20251;-67
2023/02/15 03:02:41;;;;;;;7.47;6.70;;;15.50;51.90;;;;;;5115108;28;20169;-66
2023/02/15 03:05:09;;;;;;;7.82;7.07;;;15.50;51.90;;;;;;5114274;28;20643;-65
2023/02/15 03:07:35;;;;;;;7.35;6.60;;;15.50;51.90;;;;;;5096859;28;20602;-65
2023/02/15 03:10:01;;;;;;;7.57;6.88;;;15.50;51.90;;;;;;5097143;28;20251;-64
2023/02/15 03:12:36;;;;;;;8.23;7.43;;;15.50;52.00;;;;;;5096061;28;20558;-64
2023/02/15 03:15:14;;;;;;;7.22;6.53;;;15.50;51.90;;;;;;5113227;28;20232;-64
2023/02/15 03:17:49;;;;;;;7.80;7.00;;;15.50;51.90;;;;;;5113399;28;20217;-64
2023/02/15 03:20:18;;;;;;;8.43;7.22;;;15.50;51.90;;;;;;5112721;28;20257;-65
2023/02/15 03:22:48;;;;;;;7.95;7.10;;;15.50;51.90;;;;;;5113242;28;20619;-64
2023/02/15 03:25:20;;;;;;;7.90;7.00;;;15.40;52.50;;;;;;5096148;28;20177;-65
2023/02/15 03:27:48;;;;;;;8.00;7.20;;;15.40;51.90;;;;;;5113254;28;20181;-65
2023/02/15 03:30:14;;;;;;;8.10;7.03;;;15.40;51.80;;;;;;5113415;28;20595;-65
2023/02/15 03:32:39;;;;;;;8.00;7.18;;;15.40;51.80;;;;;;5112410;28;20177;-65
2023/02/15 03:35:06;;;;;;;7.75;7.05;;;15.40;51.80;;;;;;5096596;28;20533;-65
2023/02/15 03:37:43;;;;;;;8.02;7.22;;;15.40;51.80;;;;;;5113294;28;20177;-65
2023/02/15 03:43:17;;;;;;;8.07;7.13;;;15.40;51.90;;;;;;5113359;28;20181;-64
2023/02/15 03:45:54;;;;;;;7.82;6.75;;;15.40;51.80;;;;;;5097421;28;20181;-64
2023/02/15 03:48:27;;;;;;;7.85;7.05;;;15.40;51.80;;;;;;5097048;28;20225;-64
2023/02/15 03:53:39;;;;;;;7.85;7.05;;;15.30;51.80;;;;;;5097854;28;20191;-64
2023/02/15 03:56:05;;;;;;;8.13;7.32;;;15.30;51.80;;;;;;5112841;28;20177;-65
2023/02/15 04:01:57;;;;;;;7.85;6.90;;;15.30;51.80;;;;;;5113128;28;20311;-66
2023/02/15 04:04:34;;;;;;;8.20;7.40;;;15.30;51.80;;;;;;5093167;27;20263;-65
2023/02/15 04:07:00;;;;;;;7.47;6.78;;;15.30;51.80;;;;;;5114055;28;20168;-65
2023/02/15 04:12:09;;;;;;;8.15;7.22;;;15.30;51.80;;;;;;5113817;28;20650;-64
2023/02/15 04:17:19;;;;;;;7.93;7.20;;;15.30;51.80;;;;;;5113457;28;20575;-64
2023/02/15 04:25:12;;;;;;;7.55;6.85;;;15.20;51.70;;;;;;5113498;28;20531;-64
2023/02/15 04:27:39;;;;;;;7.70;6.95;;;15.20;51.70;;;;;;5113262;28;20177;-64
2023/02/15 04:30:05;;;;;;;7.57;6.72;;;15.20;51.70;;;;;;5112726;28;20691;-65
2023/02/15 04:32:30;;;;;;;6.78;6.18;;;15.20;51.70;;;;;;5113371;28;20204;-66
2023/02/15 04:34:56;;;;;;;7.57;6.70;;;15.20;51.70;;;;;;5112874;28;20631;-65
2023/02/15 04:37:21;;;;;;;7.50;6.80;;;15.20;51.70;;;;;;5112361;28;20169;-65
2023/02/15 04:39:47;;;;;;;7.20;6.50;;;15.20;51.70;;;;;;5112865;28;20211;-65
2023/02/15 04:42:12;;;;;;;7.70;6.90;;;15.20;51.70;;;;;;5113468;28;20177;-65
2023/02/15 04:44:40;;;;;;;7.25;6.55;;;15.20;52.30;;;;;;5112465;28;20173;-65
2023/02/15 04:47:06;;;;;;;6.95;6.25;;;15.10;51.70;;;;;;5113381;28;20214;-64
2023/02/15 04:49:31;;;;;;;7.05;6.45;;;15.10;51.70;;;;;;5112231;28;20250;-64
2023/02/15 04:51:57;;;;;;;8.00;7.22;;;15.10;51.70;;;;;;5113129;28;20213;-63
2023/02/15 04:54:22;;;;;;;7.38;6.68;;;15.10;51.70;;;;;;5113326;28;20173;-64
2023/02/15 04:56:48;;;;;;;7.40;6.70;;;15.10;51.70;;;;;;5112107;28;20173;-66
2023/02/15 04:59:14;;;;;;;7.55;6.78;;;15.10;51.70;;;;;;5113060;28;20169;-66
2023/02/15 05:01:39;;;;;;;7.38;6.72;;;15.10;51.70;;;;;;5112656;28;20209;-66
2023/02/15 05:04:05;;;;;;;6.82;6.18;;;15.10;51.70;;;;;;5112023;28;20199;-65
2023/02/15 05:06:30;;;;;;;8.55;6.80;;;15.10;51.60;;;;;;5112799;28;20196;-65
2023/02/15 05:08:58;;;;;;;8.18;7.38;;;15.10;51.60;;;;;;5112779;28;20599;-64
2023/02/15 05:11:24;;;;;;;7.53;6.75;;;15.10;51.60;;;;;;5112234;28;20251;-64
2023/02/15 05:13:49;;;;;;;7.45;6.75;;;15.10;51.60;;;;;;5112438;28;20200;-64
2023/02/15 05:16:15;;;;;;;9.48;7.20;;;15.10;51.60;;;;;;5112388;28;20232;-65
2023/02/15 05:18:40;;;;;;;8.27;6.97;;;15.00;51.50;;;;;;5111588;28;20218;-64
2023/02/15 05:21:06;;;;;;;7.55;6.75;;;15.00;51.60;;;;;;5112463;28;20209;-65
2023/02/15 05:23:31;;;;;;;7.80;6.93;;;15.00;51.50;;;;;;5112591;28;20165;-64
2023/02/15 05:28:41;;;;;;;7.47;6.78;;;15.00;51.50;;;;;;5112367;28;20256;-65
2023/02/15 05:31:12;;;;;;;7.60;6.93;;;15.00;52.10;;;;;;5112407;28;20264;-65
2023/02/15 05:33:38;;;;;;;8.13;7.43;;;15.00;51.50;;;;;;5093463;28;20173;-66
2023/02/15 05:36:03;;;;;;;7.47;6.78;;;15.00;51.40;;;;;;5112683;28;20252;-65
2023/02/15 05:38:29;;;;;;;7.30;6.60;;;15.00;51.50;;;;;;5116471;28;20238;-65
2023/02/15 05:40:55;;;;;;;7.38;6.68;;;15.00;51.50;;;;;;5115547;28;20246;-65
2023/02/15 05:43:21;;;;;;;7.30;6.60;;;15.00;51.40;;;;;;5116441;28;20176;-65
2023/02/15 05:45:53;;;;;;;7.32;6.63;;;15.00;51.40;;;;;;5115194;28;20172;-65
2023/02/15 05:48:25;;;;;;;8.20;7.40;;;15.00;51.50;;;;;;5115997;28;20181;-65
2023/02/15 05:51:00;;;;;;;8.02;7.22;;;15.00;51.50;;;;;;5115826;28;20246;-64
2023/02/15 05:53:27;;;;;;;7.10;6.40;;;14.90;51.30;;;;;;5115290;27;20169;-64
2023/02/15 05:55:53;;;;;;;7.28;6.57;;;14.90;51.40;;;;;;5115650;28;20260;-64
2023/02/15 05:58:19;;;;;;;7.45;6.75;;;14.90;51.40;;;;;;5115969;28;20173;-66
2023/02/15 06:00:45;;;;;;;8.23;7.43;;;14.90;51.50;;;;;;5114544;28;20220;-66
2023/02/15 06:03:10;;;;;;;8.48;7.57;;;15.00;51.50;;;;;;5115836;28;20204;-66
2023/02/15 06:05:36;;;;;;;7.22;6.53;;;15.00;51.20;;;;;;5115488;28;20217;-66
2023/02/15 06:08:01;;;;;;;7.65;6.70;;;15.10;51.10;;;;;;5115201;28;20176;-65
2023/02/15 06:10:27;;;;;;;7.05;6.35;;;15.10;50.70;;;;;;5116111;28;20173;-64
2023/02/15 06:12:52;;;;;;;7.20;6.50;;;15.30;50.80;;;;;;5115802;28;20165;-65
2023/02/15 06:15:18;;;;;;;7.18;6.53;;;15.40;50.70;;;;;;5115139;28;20177;-65
2023/02/15 06:17:46;;;;;;;7.30;6.60;;;15.50;50.70;;;;;;5115468;28;20213;-65
2023/02/15 06:20:12;;;;;;;7.00;6.22;;;15.60;50.60;;;;;;5115893;28;20197;-66
2023/02/15 06:22:37;;;;;;;7.50;6.80;;;15.70;50.40;;;;;;5114884;28;20179;-65
2023/02/15 06:25:03;;;;;;;6.65;6.05;;;15.80;50.80;;;;;;5115691;28;20208;-66
2023/02/15 06:27:32;;;;;;;7.47;6.78;;;15.90;49.90;;;;;;5115609;28;20263;-66
2023/02/15 06:29:57;;;;;;;5.82;5.30;;;16.10;49.80;;;;;;5114876;28;20200;-67
2023/02/15 06:32:23;;;;;;;6.70;6.10;;;16.10;49.70;;;;;;5115488;28;20216;-67
2023/02/15 06:34:48;;;;;;;6.90;6.30;;;16.20;49.60;;;;;;5115293;28;20218;-66
2023/02/15 06:37:14;;;;;;;6.90;6.22;;;16.20;49.60;;;;;;5114730;28;20214;-66
2023/02/15 06:39:39;;;;;;;6.82;6.20;;;16.20;49.60;;;;;;5115174;28;20178;-66
2023/02/15 06:42:05;;;;;;;7.03;6.32;;;16.30;49.50;;;;;;5114636;28;20607;-66
2023/02/15 06:44:30;;;;;;;6.47;5.88;;;16.20;49.40;;;;;;5115243;28;20579;-65
2023/02/15 06:46:56;;;;;;;6.57;5.97;;;16.30;49.40;;;;;;5114944;28;20627;-64
2023/02/15 06:49:21;;;;;;;6.05;5.55;;;16.30;49.40;;;;;;5114433;28;20162;-64
2023/02/15 06:51:47;;;;;;;6.38;5.78;;;16.30;49.40;;;;;;5114934;28;20191;-63
2023/02/15 06:54:12;;;;;;;6.40;5.80;;;16.30;49.50;;;;;;5115220;28;20214;-64
2023/02/15 06:56:38;;;;;;;6.82;6.15;;;16.10;49.50;;;;;;5114050;28;20627;-65
2023/02/15 06:59:04;;;;;;;6.85;6.25;;;16.10;49.60;;;;;;5115005;28;20166;-65
2023/02/15 07:01:29;;;;;;;6.45;5.82;;;16.10;49.70;;;;;;5115082;28;20690;-66
2023/02/15 07:03:55;;;;;;;6.20;5.60;;;16.10;49.70;;;;;;5114201;28;20627;-67
2023/02/15 07:06:20;;;;;;;6.30;5.70;;;16.10;49.70;;;;;;5114984;28;20169;-64
2023/02/15 07:08:46;;;;;;;5.68;5.18;;;16.20;49.70;;;;;;5114702;28;20541;-64
2023/02/15 07:13:55;;;;;;;6.20;5.68;;;16.50;49.40;;;;;;5114447;28;20184;-65
2023/02/15 07:16:21;;;;;;;5.88;5.43;;;16.70;49.20;;;;;;5114494;28;20220;-65
2023/02/15 07:18:46;;;;;;;6.03;5.43;;;16.80;49.00;;;;;;5113621;28;20218;-65
2023/02/15 07:21:12;;;;;;;5.90;5.40;;;16.80;49.50;;;;;;5114665;28;20205;-67
2023/02/15 07:23:38;;;;;;;6.25;5.75;;;16.80;48.80;;;;;;5114126;28;20529;-64
2023/02/15 07:26:04;;;;;;;6.53;5.93;;;16.90;48.80;;;;;;5113741;28;20177;-66
2023/02/15 07:28:29;;;;;;;6.75;6.15;;;16.90;48.90;;;;;;5114477;28;20244;-66
2023/02/15 07:30:55;;;;;;;6.50;5.88;;;17.00;48.80;;;;;;5114254;28;20177;-66
2023/02/15 07:33:23;;;;;;;6.25;5.65;;;17.20;48.50;;;;;;5113435;28;20204;-67
2023/02/15 07:35:57;;;;;;;6.82;6.13;;;17.30;48.30;;;;;;5113805;28;20246;-66
2023/02/15 07:38:23;;;;;;;6.55;5.95;;;17.50;48.00;;;;;;5113536;28;20222;-67
2023/02/15 07:40:49;;;;;;;6.68;6.07;;;17.60;47.80;;;;;;5112511;28;20213;-68
2023/02/15 07:43:14;;;;;;;7.15;6.45;;;17.60;47.90;;;;;;5114422;28;20271;-67
2023/02/15 07:45:40;;;;;;;6.50;5.90;;;17.50;48.40;;;;;;5113275;28;20276;-68
2023/02/15 07:48:05;;;;;;;6.95;6.35;;;17.50;48.50;;;;;;5114183;28;20193;-65
2023/02/15 07:50:31;;;;;;;6.25;5.75;;;17.60;48.70;;;;;;5113943;28;20204;-64
2023/02/15 07:52:57;;;;;;;6.55;5.95;;;17.70;48.50;;;;;;5113322;28;20169;-68
2023/02/15 07:55:22;;;;;;;6.82;6.13;;;17.80;48.30;;;;;;5113895;28;20184;-65
2023/02/15 07:57:53;;;;;;;6.90;6.20;;;17.80;48.40;;;;;;5113832;28;20184;-63
2023/02/15 08:00:21;;;;;;;6.97;6.25;;;17.80;48.30;;;;;;5112761;28;20209;-67
2023/02/15 08:03:14;;;;;;;6.28;5.75;;;17.80;48.20;;;;;;5112923;28;20260;-67
2023/02/15 08:05:40;;;;;;;7.05;6.38;;;17.90;48.00;;;;;;5113377;28;20177;-66
2023/02/15 08:08:07;;;;;;;7.53;6.65;;;17.90;47.90;;;;;;5113086;28;20607;-66
2023/02/15 08:13:16;;;;;;;7.82;6.82;;;17.90;47.90;;;;;;5114214;28;20542;-65
2023/02/15 08:15:51;;;;;;;7.97;7.18;;;18.00;47.90;;;;;;5112603;28;20606;-66
2023/02/15 08:18:17;;;;;;;7.75;7.05;;;17.90;47.90;;;;;;5113859;28;20207;-65
2023/02/15 08:20:42;;;;;;;7.75;6.97;;;17.90;48.10;;;;;;5112602;28;20208;-65
2023/02/15 08:23:08;;;;;;;7.28;6.53;;;17.90;48.10;;;;;;5113567;28;20222;-65
2023/02/15 08:25:34;;;;;;;7.13;6.43;;;17.90;48.10;;;;;;5113373;28;20173;-66
2023/02/15 08:27:59;;;;;;;7.65;6.95;;;17.80;48.10;;;;;;5112890;28;20260;-67
2023/02/15 08:30:25;;;;;;;8.15;7.35;;;17.80;48.10;;;;;;5113415;28;20260;-67
2023/02/15 08:32:50;;;;;;;7.82;7.05;;;17.70;48.30;;;;;;5113193;28;20330;-66
2023/02/15 08:35:16;;;;;;;8.15;7.22;;;17.70;48.40;;;;;;5112924;28;20648;-67
2023/02/15 08:37:41;;;;;;;7.72;7.03;;;17.60;48.40;;;;;;5113509;28;20665;-70
2023/02/15 08:40:07;;;;;;;7.75;7.10;;;17.60;48.50;;;;;;5113560;28;20184;-69
2023/02/15 08:42:33;;;;;;;8.13;7.32;;;17.60;48.60;;;;;;5112397;28;20177;-66
2023/02/15 08:44:59;;;;;;;7.50;6.85;;;17.60;48.60;;;;;;5112701;28;20647;-66
2023/02/15 08:47:24;;;;;;;8.60;6.57;;;17.60;48.70;;;;;;5112648;28;20173;-63
2023/02/15 08:49:51;;;;;;;7.25;6.55;;;17.60;48.70;;;;;;5111517;28;20630;-64
2023/02/15 08:52:16;;;;;;;6.95;6.25;;;17.50;48.80;;;;;;5112719;28;20199;-65
2023/02/15 08:54:42;;;;;;;6.70;6.10;;;17.50;49.00;;;;;;5112381;28;20643;-64
2023/02/15 08:57:07;;;;;;;6.82;6.20;;;17.50;49.00;;;;;;5111888;28;20508;-65
2023/02/15 08:59:33;;;;;;;7.22;6.45;;;17.50;49.20;;;;;;5111590;28;20284;-66
2023/02/15 09:01:58;;;;;;;6.53;5.90;;;17.50;49.20;;;;;;5112318;28;20216;-67
2023/02/15 09:04:24;;;;;;;5.85;5.35;;;17.50;49.30;;;;;;5111756;28;20707;-66
2023/02/15 09:06:50;;;;;;;6.85;6.22;;;17.60;49.50;;;;;;5112268;28;20319;-64
2023/02/15 09:09:16;;;;;;;6.78;6.18;;;17.60;49.50;;;;;;5112539;28;20615;-65
2023/02/15 09:11:43;;;;;;;5.50;5.10;;;17.70;49.50;;;;;;5112366;28;20169;-66
2023/02/15 09:14:13;;;;;;;6.78;6.18;;;17.70;49.50;;;;;;5116610;28;20185;-66
2023/02/15 09:16:38;;;;;;;6.47;5.88;;;17.70;49.60;;;;;;5116089;28;20242;-65
2023/02/15 09:19:04;;;;;;;6.57;5.85;;;17.70;49.70;;;;;;5115972;28;20260;-65
2023/02/15 09:21:30;;;;;;;6.75;6.07;;;17.70;49.70;;;;;;5116512;28;20212;-65
2023/02/15 09:24:00;;;;;;;6.25;5.75;;;17.70;49.70;;;;;;5115281;28;20172;-65
2023/02/15 09:26:26;;;;;;;6.55;5.78;;;17.60;49.80;;;;;;5116424;28;20181;-65
2023/02/15 09:28:55;;;;;;;5.85;5.20;;;17.60;50.00;;;;;;5116203;28;20202;-65
2023/02/15 09:31:22;;;;;;;5.57;5.07;;;17.60;50.00;;;;;;5115575;28;20267;-65
2023/02/15 09:33:47;;;;;;;6.00;5.50;;;17.60;50.00;;;;;;5116113;28;20184;-67
2023/02/15 09:36:21;;;;;;;5.97;5.35;;;17.70;50.10;;;;;;5115978;28;20677;-66
2023/02/15 09:38:47;;;;;;;6.00;5.47;;;17.70;50.20;;;;;;5115273;28;20205;-65
2023/02/15 09:41:21;;;;;;;5.32;4.85;;;17.60;50.30;;;;;;5115986;28;20294;-66
2023/02/15 09:44:08;;;;;;;6.15;5.53;;;17.60;50.30;;;;;;5116411;28;20199;-65
2023/02/15 09:46:58;;;;;;;5.97;5.45;;;17.50;50.40;;;;;;5113933;28;20684;-64
2023/02/15 09:49:39;;;;;;;5.95;5.45;;;17.50;50.50;;;;;;5073920;28;20173;-64
2023/02/15 09:52:36;;;;;;;6.60;6.00;;;17.50;50.60;;;;;;5115129;28;20173;-64
2023/02/15 09:55:36;;;;;;;5.88;5.35;;;17.40;50.70;;;;;;5115955;28;20184;-65
2023/02/15 09:58:27;;;;;;;6.28;5.60;;;17.40;50.80;;;;;;5115689;28;20239;-67
2023/02/15 10:01:02;;;;;;;5.93;5.32;;;17.40;50.80;;;;;;5114749;28;20655;-66
2023/02/15 10:03:36;;;;;;;6.32;5.72;;;17.40;50.90;;;;;;5115688;28;20169;-66
2023/02/15 10:06:05;;;;;;;5.70;5.20;;;17.40;51.00;;;;;;5114985;28;20253;-66
2023/02/15 10:08:52;;;;;;;5.82;5.32;;;17.50;51.10;;;;;;5115436;28;20287;-66
2023/02/15 10:11:39;;;;;;;5.75;5.25;;;17.50;51.00;;;;;;5114362;28;20177;-65
2023/02/15 10:14:28;;;;;;;5.57;5.07;;;17.50;51.10;;;;;;5113760;28;20275;-65
2023/02/15 10:17:18;;;;;;;5.00;4.60;;;17.50;51.10;;;;;;5113871;28;20253;-64
2023/02/15 10:19:52;;;;;;;5.35;4.85;;;17.50;51.10;;;;;;5114947;28;20238;-65
2023/02/15 10:22:59;;;;;;;5.63;5.10;;;17.50;51.20;;;;;;5113876;28;20181;-66
2023/02/15 10:25:34;;;;;;;5.57;5.07;;;17.50;51.20;;;;;;5097425;28;20169;-67
2023/02/15 10:28:23;;;;;;;5.32;4.80;;;17.50;51.30;;;;;;5096869;28;20172;-66
2023/02/15 10:30:50;;;;;;;5.80;5.30;;;17.40;51.20;;;;;;5113804;28;20216;-67
2023/02/15 10:33:38;;;;;;;5.45;4.95;;;17.40;51.30;;;;;;5113852;28;20214;-67
2023/02/15 10:36:10;;;;;;;5.22;4.82;;;17.40;51.30;;;;;;5114578;28;20184;-66
2023/02/15 10:38:54;;;;;;;6.18;5.68;;;17.50;51.40;;;;;;5114989;28;20173;-66
2023/02/15 10:41:19;;;;;;;4.55;4.20;;;17.40;51.30;;;;;;5113031;28;20256;-65
2023/02/15 10:44:16;;;;;;;5.35;4.90;;;17.50;51.40;;;;;;5114902;28;20161;-64
2023/02/15 10:47:00;;;;;;;6.47;5.88;;;17.40;51.50;;;;;;5113992;28;20264;-72
2023/02/15 10:49:58;;;;;;;5.63;5.03;;;17.50;51.50;;;;;;5115350;28;20197;-69
2023/02/15 10:52:45;;;;;;;5.95;5.45;;;17.50;51.50;;;;;;5114225;28;20244;-62
2023/02/15 10:55:18;;;;;;;6.00;5.40;;;17.40;51.60;;;;;;5115092;28;20176;-69
2023/02/15 10:58:11;;;;;;;6.55;5.95;;;17.40;51.60;;;;;;5113800;28;20204;-65
2023/02/15 11:01:04;;;;;;;5.78;5.22;;;17.40;51.60;;;;;;5113366;28;20207;-65
2023/02/15 11:03:29;;;;;;;6.47;5.88;;;17.40;51.80;;;;;;5113466;28;20184;-65
2023/02/15 11:06:03;;;;;;;5.80;5.30;;;17.40;51.80;;;;;;5114526;28;20530;-65
2023/02/15 11:08:32;;;;;;;5.93;5.43;;;17.40;51.80;;;;;;5113696;28;20208;-64
2023/02/15 11:11:09;;;;;;;6.18;5.55;;;17.40;51.90;;;;;;5112951;28;20210;-64
2023/02/15 11:13:39;;;;;;;6.40;5.80;;;17.40;51.90;;;;;;5113801;28;20571;-64
2023/02/15 11:16:07;;;;;;;5.75;5.25;;;17.40;51.90;;;;;;5113366;28;20213;-64
2023/02/15 11:18:40;;;;;;;6.47;5.03;;;17.40;51.90;;;;;;5112632;28;20180;-64
2023/02/15 11:21:14;;;;;;;5.57;5.07;;;17.40;51.90;;;;;;5113241;28;20826;-63
2023/02/15 11:23:41;;;;;;;6.15;5.65;;;17.40;51.80;;;;;;5112568;28;20177;-64
2023/02/15 11:26:30;;;;;;;5.65;5.15;;;17.50;52.20;;;;;;5113660;28;20184;-66
2023/02/15 11:29:12;;;;;;;5.68;5.18;;;17.50;51.90;;;;;;5113424;28;20211;-65
2023/02/15 11:31:46;;;;;;;5.88;5.28;;;17.50;52.60;;;;;;5112277;28;20231;-66
2023/02/15 11:34:31;;;;;;;5.72;5.13;;;17.50;51.90;;;;;;5111826;28;20238;-67
2023/02/15 11:37:00;;;;;;;5.47;4.93;;;17.60;51.90;;;;;;5113439;28;20176;-65
2023/02/15 11:39:28;;;;;;;5.63;5.00;;;17.50;51.90;;;;;;5112710;28;20185;-66
2023/02/15 11:41:55;;;;;;;4.93;4.45;;;17.60;51.90;;;;;;5112930;28;20270;-66
2023/02/15 11:44:23;;;;;;;4.95;4.45;;;17.50;51.90;;;;;;5113061;28;20623;-66
2023/02/15 11:46:49;;;;;;;5.43;4.93;;;17.60;51.90;;;;;;5112360;28;20559;-65
2023/02/15 11:49:27;;;;;;;5.03;4.60;;;17.60;51.90;;;;;;5113307;28;20177;-65
2023/02/15 11:51:53;;;;;;;5.25;4.57;;;17.70;51.90;;;;;;5112134;28;20177;-65
2023/02/15 11:54:20;;;;;;;5.85;5.32;;;17.70;51.80;;;;;;5113143;28;20569;-72
2023/02/15 11:56:46;;;;;;;5.20;4.80;;;17.70;51.80;;;;;;5112728;28;20181;-72
2023/02/15 11:59:14;;;;;;;5.03;4.63;;;17.70;51.90;;;;;;5112054;28;20169;-79
2023/02/15 12:01:44;;;;;;;5.45;4.97;;;17.70;51.80;;;;;;5112431;28;20743;-70
2023/02/15 12:04:18;;;;;;;6.40;5.60;;;17.70;51.80;;;;;;5113739;28;20185;-70
2023/02/15 12:07:11;;;;;;;5.80;5.20;;;17.70;51.80;;;;;;5113153;28;20517;-68
2023/02/15 12:09:57;;;;;;;5.82;5.32;;;17.60;51.80;;;;;;5112815;28;20173;-65
2023/02/15 12:12:30;;;;;;;5.90;5.38;;;17.60;51.90;;;;;;5113023;28;20169;-65
2023/02/15 12:15:00;;;;;;;5.85;5.35;;;17.60;52.00;;;;;;5113060;28;20180;-66
2023/02/15 12:17:30;;;;;;;5.45;4.95;;;17.60;52.00;;;;;;5112556;28;20228;-66
2023/02/15 12:20:01;;;;;;;5.50;5.00;;;17.60;51.90;;;;;;5111617;28;20195;-65
2023/02/15 12:22:30;;;;;;;5.55;5.05;;;17.60;51.90;;;;;;5112692;28;20614;-66
2023/02/15 12:24:59;;;;;;;6.20;5.60;;;17.70;51.90;;;;;;5113714;28;20238;-65
2023/02/15 12:27:25;;;;;;;6.28;5.68;;;17.70;51.90;;;;;;5111941;28;20181;-66
2023/02/15 12:30:02;;;;;;;5.03;4.63;;;17.70;51.90;;;;;;5112297;28;20177;-68
2023/02/15 12:32:30;;;;;;;5.50;5.00;;;17.70;51.90;;;;;;5113490;28;20169;-74
2023/02/15 12:35:12;;;;;;;6.75;5.47;;;17.70;51.90;;;;;;5111744;28;20231;-67
2023/02/15 12:37:38;;;;;;;5.53;5.03;;;17.70;52.00;;;;;;5113264;28;20234;-66
2023/02/15 12:40:30;;;;;;;6.45;5.78;;;17.70;52.10;;;;;;5113404;28;20169;-69
2023/02/15 12:42:57;;;;;;;5.80;5.10;;;17.60;52.00;;;;;;5107489;28;20181;-65
2023/02/15 12:45:33;;;;;;;6.28;5.43;;;17.60;52.00;;;;;;5112264;28;20241;-66
2023/02/15 12:48:12;;;;;;;6.03;5.30;;;17.60;52.00;;;;;;5111417;28;20189;-66
2023/02/15 12:50:38;;;;;;;5.70;5.13;;;17.60;52.00;;;;;;5113041;28;20169;-65
2023/02/15 12:53:22;;;;;;;5.85;5.38;;;17.60;52.00;;;;;;5113269;28;20177;-64
2023/02/15 12:55:54;;;;;;;5.32;4.80;;;17.60;52.00;;;;;;5112505;28;20171;-66
2023/02/15 12:58:27;;;;;;;6.00;5.32;;;17.70;52.10;;;;;;5113331;28;20313;-66
2023/02/15 13:01:08;;;;;;;6.20;5.60;;;17.60;52.00;;;;;;5111663;28;20219;-66
2023/02/15 13:03:34;;;;;;;5.78;5.28;;;17.70;52.70;;;;;;5112081;28;20176;-67
2023/02/15 13:06:01;;;;;;;5.32;4.82;;;17.70;52.00;;;;;;5111565;28;20173;-66
2023/02/15 13:08:33;;;;;;;5.50;4.88;;;17.70;52.00;;;;;;5111835;28;20191;-64
2023/02/15 13:10:58;;;;;;;5.65;5.15;;;17.70;52.00;;;;;;5111249;28;20184;-64
2023/02/15 13:13:29;;;;;;;5.45;4.95;;;17.70;52.00;;;;;;5113145;28;20173;-65
2023/02/15 13:16:00;;;;;;;6.97;5.13;;;17.70;51.90;;;;;;5110661;28;20654;-65
2023/02/15 13:18:36;;;;;;;5.63;5.13;;;17.70;51.90;;;;;;5111755;28;20658;-65
2023/02/15 13:21:23;;;;;;;5.93;5.38;;;17.70;51.90;;;;;;5111678;28;20212;-66
2023/02/15 13:23:57;;;;;;;5.47;4.97;;;17.70;51.90;;;;;;5110837;28;20282;-66
2023/02/15 13:26:26;;;;;;;6.03;5.40;;;17.70;51.90;;;;;;5111685;28;20658;-65
2023/02/15 13:28:56;;;;;;;6.32;5.43;;;17.70;52.00;;;;;;5111351;28;20452;-65
2023/02/15 13:31:25;;;;;;;5.82;5.20;;;17.70;52.00;;;;;;5111092;28;20177;-66